Impacts TAF Board INFO
FOR SITUATIONAL AWARENESS. NOT TO BE USED FOR FLIGHT PLANNING PURPOSES.
IDs:

KMCO - Orlando Intl, FL, US

Issued at 0308 UTC 20 Nov 2017
Updated at 0350 UTC 20 Nov 2017
Potential Impact None Slight Moderate High
Time0253Z 20/04Z 20/05Z 20/06Z 20/07Z 20/08Z 20/09Z 20/10Z 20/11Z 20/12Z 20/13Z 20/14Z 20/15Z 20/16Z>>
Type OBS PRVL PRVL PRVL PRVL PRVL PRVL PRVL PRVL PRVL PRVL PRVL PRVL PRVL
VIS 10 >6 >6 >6 >6 >6 >6 >6 >6 >6 >6 >6 >6 >6
CIG -- -- -- -- -- -- -- -- -- -- -- -- -- --
Cover FEW SKC SKC SKC SKC SKC SKC SKC SKC SKC SKC SKC SKC SCT
FltCat VFR VFR VFR VFR VFR VFR VFR VFR VFR VFR VFR VFR VFR VFR
WX -- -- -- -- -- -- -- -- -- -- -- -- -- --
WDir 10 360 360 360 360 360 360 360 360 360 360 360 360 60
WSpd 14 11 11 11 11 11 11 11 11 11 11 11 11 12
WGst -- -- -- -- -- -- -- -- -- -- -- -- -- --

Raw TAF
KMCO 200308Z 2003/2106 36011KT P6SM SKC
  FM201600 06012KT P6SM SCT045
  FM210000 07006KT P6SM SCT040


Raw METAR
KMCO 200253Z 01014KT 10SM FEW035 17/11 A3003 RMK AO2 SLP167 T01670111 53031
KMCO 200153Z 36016KT 10SM SCT020 BKN035 19/16 A2999 RMK AO2 SLP155 T01890156
KMCO 200121Z 36015KT 10SM SCT017 SCT025 BKN033 20/17 A2998 RMK AO2 T02000167
KMCO 200053Z 33012KT 10SM SCT017 BKN023 20/17 A2997 RMK AO2 SLP145 T02000167
KMCO 200035Z 30008KT 10SM SCT017 BKN023 21/19 A2996 RMK AO2 T02060189

METAR Board
Radar Display
Forecast Discussion

FOR SITUATIONAL AWARENESS. NOT TO BE USED FOR FLIGHT PLANNING PURPOSES.